KCLW/CLW METAR and TAF weather

Enter ICAO airport designator
Station Type Date Time Source
KCLW METAR 2020/05/30 05:55 UTC NOAA

KCLW 300555Z AUTO 10003KT 10SM CLR 24/22 A3005 RMK AO2


Station Type Date Time Source
KCLW Decoded METAR 2020/05/30 05:55 UTC NOAA

Station name not available
May 30, 2020 - 01:55 AM EDT / 2020.05.30 0555 UTC
Wind: from the E (100 degrees) at 3 MPH (3 KT):0
Visibility: 10 mile(s):0
Sky conditions: clear
Temperature: 75 F (24 C)
Dew Point: 71 F (22 C)
Relative Humidity: 88%
Pressure (altimeter): 30.05 in. Hg (1017 hPa)
ob: KCLW 300555Z AUTO 10003KT 10SM CLR 24/22 A3005 RMK AO2
cycle: 6

Station Type Date Time Source
KCLW TAF UTC NOAA

Error!

Example: see airport list